Time;durP1;ratioP1;P1;durP2;ratioP2;P2;SDS_P1;SDS_P2;PMS_P1;PMS_P2;Temp;Humidity;BMP_temperature;BMP_pressure;BME280_temperature;BME280_humidity;BME280_pressure;Samples;Min_cycle;Max_cycle;Signal;HPM_P1;HPM_P2
2022/10/12 00:01:58;;;;;;;11.10;5.78;;;3.50;99.90;;;;;;5041295;28;20049;-58
2022/10/12 00:04:24;;;;;;;13.73;6.20;;;3.40;99.90;;;;;;5030046;28;20060;-58
2022/10/12 00:06:50;;;;;;;16.55;6.15;;;3.50;99.90;;;;;;5048237;28;20043;-55
2022/10/12 00:09:15;;;;;;;10.23;5.38;;;3.40;99.90;;;;;;5029134;28;20544;-57
2022/10/12 00:11:41;;;;;;;11.25;6.32;;;3.40;99.90;;;;;;5048178;28;20033;-57
2022/10/12 00:14:06;;;;;;;11.82;6.05;;;3.40;99.90;;;;;;5027778;28;20038;-57
2022/10/12 00:16:33;;;;;;;12.15;5.45;;;3.30;99.90;;;;;;5048050;28;20688;-55
2022/10/12 00:18:59;;;;;;;13.40;6.50;;;3.30;99.90;;;;;;5028452;28;20606;-56
2022/10/12 00:21:27;;;;;;;15.57;6.50;;;3.30;99.90;;;;;;5047899;28;20082;-56
2022/10/12 00:23:56;;;;;;;11.23;5.00;;;3.30;99.90;;;;;;5024989;28;20028;-56
2022/10/12 00:26:22;;;;;;;10.23;5.00;;;3.20;99.90;;;;;;5026348;28;20025;-57
2022/10/12 00:28:48;;;;;;;11.13;5.95;;;3.20;99.90;;;;;;5047352;28;20493;-56
2022/10/12 00:31:19;;;;;;;8.98;5.35;;;3.20;99.90;;;;;;5027957;28;20113;-57
2022/10/12 00:33:46;;;;;;;10.20;5.40;;;3.20;99.90;;;;;;5012204;28;20092;-57
2022/10/12 00:36:17;;;;;;;11.57;6.00;;;3.20;99.90;;;;;;5031529;28;20021;-58
2022/10/12 00:38:43;;;;;;;14.45;5.78;;;3.20;99.90;;;;;;5012056;28;20054;-57
2022/10/12 00:41:09;;;;;;;13.20;5.78;;;3.10;99.90;;;;;;5031624;28;20432;-56
2022/10/12 00:43:37;;;;;;;12.68;4.90;;;3.10;99.90;;;;;;5051187;28;20064;-56
2022/10/12 00:46:17;;;;;;;10.50;5.18;;;3.10;99.90;;;;;;5028811;28;20056;-58
2022/10/12 00:48:46;;;;;;;8.18;4.70;;;3.10;99.90;;;;;;5011984;28;20033;-57
2022/10/12 00:51:13;;;;;;;8.57;5.00;;;3.10;99.90;;;;;;5032062;28;20029;-58
2022/10/12 00:53:44;;;;;;;13.20;5.68;;;3.00;99.90;;;;;;5050895;28;20037;-57
2022/10/12 00:56:19;;;;;;;12.07;4.72;;;3.00;99.90;;;;;;5026911;28;20030;-57
2022/10/12 00:58:47;;;;;;;14.80;6.28;;;3.00;99.90;;;;;;5011618;28;20110;-56
2022/10/12 01:01:12;;;;;;;13.60;4.93;;;3.00;99.90;;;;;;5032011;28;20104;-55
2022/10/12 01:03:38;;;;;;;11.25;5.18;;;3.00;99.90;;;;;;5048480;28;20124;-56
2022/10/12 01:06:05;;;;;;;12.25;5.05;;;3.00;99.90;;;;;;5032907;28;20032;-57
2022/10/12 01:08:31;;;;;;;11.23;5.38;;;3.00;99.90;;;;;;5050417;28;20041;-57
2022/10/12 01:10:57;;;;;;;7.18;4.53;;;3.00;99.90;;;;;;5029749;28;20028;-57
2022/10/12 01:13:23;;;;;;;12.02;5.63;;;2.90;99.90;;;;;;5050338;28;20075;-56
2022/10/12 01:15:56;;;;;;;16.02;5.63;;;2.90;99.90;;;;;;5029780;28;20030;-56
2022/10/12 01:18:29;;;;;;;11.93;5.40;;;2.90;99.90;;;;;;5011099;28;20042;-57
2022/10/12 01:21:19;;;;;;;18.83;6.28;;;2.90;99.90;;;;;;5023458;28;20091;-56
2022/10/12 01:24:05;;;;;;;11.55;5.28;;;2.90;99.90;;;;;;5029102;28;20041;-56
2022/10/12 01:26:59;;;;;;;9.95;4.68;;;2.90;99.90;;;;;;5026893;28;20109;-56
2022/10/12 01:30:02;;;;;;;11.27;3.85;;;2.80;99.90;;;;;;5011987;28;20430;-57
2022/10/12 01:32:43;;;;;;;9.98;5.30;;;2.80;99.90;;;;;;5050658;28;20074;-56
2022/10/12 01:35:22;;;;;;;14.23;5.40;;;2.80;99.90;;;;;;5023572;28;20040;-57
2022/10/12 01:37:59;;;;;;;8.18;4.70;;;2.70;99.90;;;;;;5010839;28;20068;-55
2022/10/12 01:40:35;;;;;;;8.65;4.70;;;2.80;99.90;;;;;;5027442;28;20079;-55
2022/10/12 01:43:01;;;;;;;10.60;4.57;;;2.70;99.90;;;;;;5009745;28;20033;-57
2022/10/12 01:45:27;;;;;;;8.63;4.80;;;2.70;99.90;;;;;;5047202;28;20028;-57
2022/10/12 01:47:54;;;;;;;10.27;4.40;;;2.70;99.90;;;;;;5030942;28;20077;-55
2022/10/12 01:50:26;;;;;;;11.80;4.88;;;2.70;99.90;;;;;;5047753;28;20029;-55
2022/10/12 01:53:15;;;;;;;9.52;4.22;;;2.60;99.90;;;;;;5010663;28;20038;-57
2022/10/12 01:55:54;;;;;;;9.00;4.43;;;2.60;99.90;;;;;;5030916;28;20120;-56
2022/10/12 01:58:32;;;;;;;7.05;4.18;;;2.60;99.90;;;;;;5010507;28;20029;-56
2022/10/12 02:01:05;;;;;;;11.32;5.80;;;2.60;99.90;;;;;;5021993;28;20033;-56
2022/10/12 02:03:58;;;;;;;10.75;4.68;;;2.60;99.90;;;;;;5010464;28;20054;-56
2022/10/12 02:06:31;;;;;;;9.85;4.57;;;2.60;99.90;;;;;;5025111;28;20053;-57
2022/10/12 02:09:21;;;;;;;7.95;4.60;;;2.60;99.90;;;;;;5010350;28;20044;-54
2022/10/12 02:11:51;;;;;;;7.93;4.38;;;2.50;99.90;;;;;;5028297;28;20041;-58
2022/10/12 02:14:21;;;;;;;7.85;4.60;;;2.50;99.90;;;;;;5049550;28;20043;-55
2022/10/12 02:16:52;;;;;;;13.63;5.32;;;2.50;99.90;;;;;;5028141;28;20061;-57
2022/10/12 02:19:28;;;;;;;10.80;4.80;;;2.50;99.90;;;;;;5010083;28;20038;-57
2022/10/12 02:21:58;;;;;;;10.98;4.45;;;2.40;99.90;;;;;;5010227;28;20105;-57
2022/10/12 02:24:24;;;;;;;7.55;4.53;;;2.40;99.90;;;;;;5042850;28;20120;-57
2022/10/12 02:26:52;;;;;;;8.10;4.57;;;2.40;99.90;;;;;;5047765;28;20124;-56
2022/10/12 02:29:32;;;;;;;8.70;4.53;;;2.40;99.90;;;;;;5029755;28;20060;-55
2022/10/12 02:32:09;;;;;;;12.40;5.20;;;2.40;99.90;;;;;;5009912;28;20030;-57
2022/10/12 02:34:42;;;;;;;7.18;4.75;;;2.40;99.90;;;;;;5009710;28;20072;-58
2022/10/12 02:37:19;;;;;;;11.63;4.93;;;2.40;99.90;;;;;;5049549;28;20025;-57
2022/10/12 02:39:53;;;;;;;8.88;4.70;;;2.30;99.90;;;;;;5012055;28;20034;-55
2022/10/12 02:42:28;;;;;;;7.20;4.75;;;2.40;99.90;;;;;;5049461;28;20044;-56
2022/10/12 02:44:56;;;;;;;12.40;5.28;;;2.30;99.90;;;;;;5014272;28;20021;-58
2022/10/12 02:47:25;;;;;;;10.80;4.45;;;2.30;99.90;;;;;;5049396;28;20025;-57
2022/10/12 02:49:52;;;;;;;8.23;4.90;;;2.30;99.90;;;;;;5030197;28;21024;-56
2022/10/12 02:52:17;;;;;;;14.07;4.85;;;2.30;99.90;;;;;;5049448;28;20628;-57
2022/10/12 02:54:43;;;;;;;8.73;4.32;;;2.20;99.90;;;;;;5029208;28;20037;-56
2022/10/12 02:57:08;;;;;;;8.82;4.82;;;2.20;99.90;;;;;;5049180;28;20091;-55
2022/10/12 02:59:34;;;;;;;13.23;5.70;;;2.20;99.90;;;;;;5027699;28;20075;-56
2022/10/12 03:01:59;;;;;;;8.48;4.70;;;2.20;99.90;;;;;;5042087;28;20449;-57
2022/10/12 03:04:25;;;;;;;11.38;4.13;;;2.20;99.90;;;;;;5029179;28;20034;-56
2022/10/12 03:06:50;;;;;;;10.45;4.25;;;2.20;99.90;;;;;;5027878;28;20025;-55
2022/10/12 03:09:16;;;;;;;11.93;4.55;;;2.10;99.90;;;;;;5048250;28;20032;-55
2022/10/12 03:11:43;;;;;;;8.20;3.85;;;2.10;99.90;;;;;;5027759;28;20041;-56
2022/10/12 03:14:10;;;;;;;6.60;3.63;;;2.10;99.90;;;;;;5048493;28;20109;-56
2022/10/12 03:16:36;;;;;;;8.10;4.38;;;2.10;99.90;;;;;;5027438;28;20049;-56
2022/10/12 03:19:01;;;;;;;11.43;4.28;;;2.10;99.90;;;;;;5048160;28;20518;-57
2022/10/12 03:21:27;;;;;;;10.50;3.70;;;2.10;99.90;;;;;;5027648;28;20110;-56
2022/10/12 03:23:52;;;;;;;11.77;4.55;;;2.10;99.90;;;;;;5041085;28;20369;-51
2022/10/12 03:26:18;;;;;;;9.32;4.82;;;2.10;99.90;;;;;;5027519;28;20044;-48
2022/10/12 03:28:43;;;;;;;8.82;3.65;;;2.10;99.90;;;;;;5047971;28;20036;-52
2022/10/12 03:31:08;;;;;;;7.93;3.58;;;2.10;99.90;;;;;;5027534;28;20033;-53
2022/10/12 03:33:34;;;;;;;11.35;4.57;;;2.00;99.90;;;;;;5047766;28;20106;-59
2022/10/12 03:36:00;;;;;;;7.47;3.80;;;2.00;99.90;;;;;;5037753;28;20160;-58
2022/10/12 03:38:25;;;;;;;10.77;4.65;;;2.00;99.90;;;;;;5028888;28;20552;-58
2022/10/12 03:40:51;;;;;;;7.57;4.13;;;2.00;99.90;;;;;;5045570;28;20033;-58
2022/10/12 03:43:16;;;;;;;6.80;4.20;;;2.00;99.90;;;;;;5028857;28;20069;-59
2022/10/12 03:45:42;;;;;;;9.43;4.50;;;2.00;99.90;;;;;;5045664;28;20033;-58
2022/10/12 03:48:08;;;;;;;12.40;4.60;;;2.00;99.90;;;;;;5029070;28;20033;-59
2022/10/12 03:50:34;;;;;;;13.20;4.47;;;2.00;99.90;;;;;;5045634;28;20390;-59
2022/10/12 03:53:01;;;;;;;9.88;3.85;;;2.00;99.90;;;;;;5048395;28;20025;-59
2022/10/12 03:55:26;;;;;;;8.07;3.97;;;1.90;99.90;;;;;;5030604;28;20032;-59
2022/10/12 03:57:52;;;;;;;10.32;4.30;;;1.90;99.90;;;;;;5048001;28;20033;-59
2022/10/12 04:00:17;;;;;;;7.70;4.07;;;1.90;99.90;;;;;;5030008;28;20024;-54
2022/10/12 04:02:43;;;;;;;12.30;4.35;;;1.90;99.90;;;;;;5034954;28;20048;-51
2022/10/12 04:05:08;;;;;;;11.35;4.63;;;1.90;99.90;;;;;;5044786;28;20477;-59
2022/10/12 04:07:34;;;;;;;11.25;4.88;;;1.90;99.90;;;;;;5039499;28;20051;-59
2022/10/12 04:09:59;;;;;;;8.35;3.78;;;1.90;99.90;;;;;;5034419;28;20523;-59
2022/10/12 04:12:25;;;;;;;12.63;4.30;;;1.90;99.90;;;;;;5054781;28;20021;-58
2022/10/12 04:14:50;;;;;;;8.25;4.57;;;1.90;99.90;;;;;;5033327;28;20065;-58
2022/10/12 04:17:16;;;;;;;6.35;4.03;;;1.90;99.90;;;;;;5054686;28;20028;-59
2022/10/12 04:19:43;;;;;;;10.25;4.07;;;1.80;99.90;;;;;;5034939;28;20040;-59
2022/10/12 04:22:08;;;;;;;10.05;4.28;;;1.80;99.90;;;;;;5033108;28;20040;-59
2022/10/12 04:24:34;;;;;;;10.07;5.30;;;1.80;99.90;;;;;;5046771;28;20037;-59
2022/10/12 04:26:59;;;;;;;16.67;8.55;;;1.80;99.90;;;;;;5033110;28;20100;-59
2022/10/12 04:29:24;;;;;;;21.80;9.48;;;1.80;99.90;;;;;;5053801;28;20033;-58
2022/10/12 04:31:50;;;;;;;19.95;9.30;;;1.80;99.90;;;;;;5033454;28;20105;-58
2022/10/12 04:34:16;;;;;;;13.63;7.43;;;1.80;99.90;;;;;;5054002;28;20123;-58
2022/10/12 04:36:41;;;;;;;19.67;7.45;;;1.70;99.90;;;;;;5033405;28;20095;-56
2022/10/12 04:39:07;;;;;;;10.75;5.78;;;1.70;99.90;;;;;;5053314;28;20119;-56
2022/10/12 04:41:32;;;;;;;12.23;5.50;;;1.70;99.90;;;;;;5033305;28;20037;-57
2022/10/12 04:43:58;;;;;;;11.63;5.57;;;1.70;99.90;;;;;;5053758;28;20403;-57
2022/10/12 04:46:23;;;;;;;8.27;5.05;;;1.70;99.90;;;;;;5033104;28;20152;-57
2022/10/12 04:48:49;;;;;;;8.98;5.60;;;1.70;99.90;;;;;;5052565;28;20037;-58
2022/10/12 04:51:14;;;;;;;12.50;5.00;;;1.70;99.90;;;;;;5042273;28;20123;-58
2022/10/12 04:53:40;;;;;;;9.90;5.40;;;1.70;99.90;;;;;;5035007;28;20065;-58
2022/10/12 04:56:06;;;;;;;8.05;5.40;;;1.70;99.90;;;;;;5051698;28;20037;-58
2022/10/12 04:58:32;;;;;;;10.38;4.63;;;1.70;99.90;;;;;;5034513;28;20044;-57
2022/10/12 05:00:58;;;;;;;9.43;4.18;;;1.70;99.90;;;;;;5051628;28;20035;-58
2022/10/12 05:03:24;;;;;;;11.77;4.70;;;1.60;99.90;;;;;;5034738;28;20053;-58
2022/10/12 05:05:49;;;;;;;11.27;4.57;;;1.70;99.90;;;;;;5051709;28;20036;-59
2022/10/12 05:08:15;;;;;;;9.85;4.28;;;1.70;99.90;;;;;;5054237;28;20040;-57
2022/10/12 05:10:41;;;;;;;6.07;3.90;;;1.60;99.90;;;;;;5038416;28;20044;-56
2022/10/12 05:13:06;;;;;;;9.30;4.40;;;1.70;99.90;;;;;;5044104;28;20029;-59
2022/10/12 05:15:32;;;;;;;11.10;4.78;;;1.60;99.90;;;;;;5036432;28;20041;-59
2022/10/12 05:17:57;;;;;;;11.10;5.50;;;1.60;99.90;;;;;;5030897;28;20485;-59
2022/10/12 05:20:23;;;;;;;23.98;10.15;;;1.70;99.90;;;;;;5047184;28;20500;-59
2022/10/12 05:22:48;;;;;;;16.35;8.30;;;1.60;99.90;;;;;;5038037;28;20029;-59
2022/10/12 05:25:14;;;;;;;24.90;11.77;;;1.60;99.90;;;;;;5028797;28;20116;-58
2022/10/12 05:27:40;;;;;;;21.13;8.65;;;1.60;99.90;;;;;;5049946;28;20655;-59
2022/10/12 05:30:06;;;;;;;17.83;6.38;;;1.60;99.90;;;;;;5028592;28;20037;-58
2022/10/12 05:32:32;;;;;;;10.90;6.03;;;1.70;99.90;;;;;;5049671;28;20068;-58
2022/10/12 05:34:57;;;;;;;12.30;5.25;;;1.70;99.90;;;;;;5030285;28;20630;-58
2022/10/12 05:37:23;;;;;;;9.30;4.47;;;1.70;99.90;;;;;;5028050;28;20036;-58
2022/10/12 05:39:48;;;;;;;6.85;4.05;;;1.70;99.90;;;;;;5048661;28;20464;-58
2022/10/12 05:42:15;;;;;;;7.88;3.83;;;1.70;99.90;;;;;;5028458;28;20092;-56
2022/10/12 05:44:40;;;;;;;8.98;4.10;;;1.80;99.90;;;;;;5048780;28;20057;-58
2022/10/12 05:47:06;;;;;;;10.07;3.38;;;1.80;99.90;;;;;;5028016;28;20060;-59
2022/10/12 05:49:31;;;;;;;9.68;4.82;;;1.80;99.90;;;;;;5048565;28;20036;-58
2022/10/12 05:51:57;;;;;;;8.07;4.20;;;1.90;99.90;;;;;;5027947;28;20033;-58
2022/10/12 05:54:22;;;;;;;8.13;3.97;;;1.90;99.90;;;;;;5029099;28;20091;-58
2022/10/12 05:56:48;;;;;;;11.77;5.20;;;2.00;99.90;;;;;;5032904;28;20045;-59
2022/10/12 05:59:13;;;;;;;8.77;4.65;;;2.00;99.90;;;;;;5048332;28;20104;-58
2022/10/12 06:01:39;;;;;;;7.15;4.15;;;2.10;99.90;;;;;;5031516;28;20382;-58
2022/10/12 06:04:04;;;;;;;9.70;4.25;;;2.20;99.90;;;;;;5049264;28;20473;-57
2022/10/12 06:06:30;;;;;;;9.27;4.38;;;2.30;99.90;;;;;;5038333;28;20040;-57
2022/10/12 06:08:55;;;;;;;6.55;3.25;;;2.70;99.90;;;;;;5029383;28;20195;-56
2022/10/12 06:11:21;;;;;;;9.68;3.60;;;3.20;99.90;;;;;;5045966;28;20099;-58
2022/10/12 06:13:46;;;;;;;9.23;4.82;;;3.80;99.90;;;;;;5025271;28;20180;-57
2022/10/12 06:16:12;;;;;;;6.47;3.80;;;4.40;99.90;;;;;;5028391;28;20500;-58
2022/10/12 06:18:37;;;;;;;9.55;4.38;;;4.90;99.90;;;;;;5028740;28;20041;-57
2022/10/12 06:21:03;;;;;;;11.98;4.88;;;5.50;99.90;;;;;;5039823;28;20092;-58
2022/10/12 06:23:28;;;;;;;4.82;2.40;;;6.10;99.90;;;;;;5021288;28;20037;-58
2022/10/12 06:25:54;;;;;;;29.10;3.78;;;6.60;99.90;;;;;;5045962;28;20265;-57
2022/10/12 06:28:20;;;;;;;6.30;3.05;;;7.10;99.90;;;;;;5048091;28;20056;-59
2022/10/12 06:30:51;;;;;;;4.10;3.05;;;7.50;99.90;;;;;;5031117;28;20469;-58
2022/10/12 06:33:17;;;;;;;5.20;3.22;;;8.00;99.90;;;;;;5048331;28;20025;-55
2022/10/12 06:35:42;;;;;;;5.63;3.13;;;8.50;98.80;;;;;;5030430;28;20503;-57
2022/10/12 06:38:08;;;;;;;7.65;3.60;;;9.00;97.50;;;;;;5048428;28;20078;-59
2022/10/12 06:40:33;;;;;;;8.35;3.83;;;9.20;94.80;;;;;;5027811;28;20033;-57
2022/10/12 06:43:01;;;;;;;6.82;3.35;;;9.40;94.60;;;;;;5048356;28;20060;-58
2022/10/12 06:45:28;;;;;;;4.05;3.25;;;9.50;94.70;;;;;;5027704;28;20497;-59
2022/10/12 06:47:54;;;;;;;6.57;3.30;;;9.70;94.90;;;;;;5047086;28;20040;-59
2022/10/12 06:50:19;;;;;;;6.45;3.53;;;10.00;97.10;;;;;;5028453;28;20052;-58
2022/10/12 06:52:46;;;;;;;6.68;3.35;;;10.30;95.60;;;;;;5047863;28;20056;-59
2022/10/12 06:55:12;;;;;;;6.53;3.67;;;10.50;96.70;;;;;;5028337;28;20079;-59
2022/10/12 06:57:37;;;;;;;4.38;3.15;;;10.70;94.20;;;;;;5026853;28;20037;-59
2022/10/12 07:00:05;;;;;;;6.05;3.65;;;10.70;94.50;;;;;;5047309;28;20048;-58
2022/10/12 07:02:31;;;;;;;6.40;3.33;;;10.50;94.70;;;;;;5037388;28;20041;-59
2022/10/12 07:04:57;;;;;;;6.82;3.95;;;10.30;93.10;;;;;;5028612;28;20028;-59
2022/10/12 07:07:22;;;;;;;6.18;4.20;;;10.00;96.90;;;;;;5028937;28;20040;-58
2022/10/12 07:09:48;;;;;;;6.88;3.08;;;9.90;93.70;;;;;;5047287;28;20112;-59
2022/10/12 07:12:13;;;;;;;4.97;3.80;;;9.90;93.10;;;;;;5026591;28;20049;-58
2022/10/12 07:14:39;;;;;;;6.65;3.95;;;10.00;94.10;;;;;;5047092;28;20040;-58
2022/10/12 07:17:04;;;;;;;6.15;3.42;;;10.20;92.20;;;;;;5026646;28;20061;-59
2022/10/12 07:19:30;;;;;;;8.20;4.10;;;10.50;94.80;;;;;;5046809;28;20080;-57
2022/10/12 07:21:56;;;;;;;8.30;3.45;;;10.70;95.80;;;;;;5026496;28;20088;-59
2022/10/12 07:24:21;;;;;;;7.55;3.60;;;11.10;98.60;;;;;;5046316;28;20048;-59
2022/10/12 07:26:49;;;;;;;3.95;3.00;;;11.40;99.90;;;;;;5025097;28;20037;-59
2022/10/12 07:29:14;;;;;;;5.32;3.45;;;11.70;99.90;;;;;;5047134;28;20058;-59
2022/10/12 07:31:41;;;;;;;5.03;3.60;;;12.00;99.90;;;;;;5034859;28;20107;-59
2022/10/12 07:34:06;;;;;;;12.23;7.47;;;12.30;99.80;;;;;;5026730;28;20673;-47
2022/10/12 07:36:32;;;;;;;12.88;9.30;;;12.50;99.90;;;;;;5044561;28;20066;-47
2022/10/12 07:38:58;;;;;;;11.27;8.90;;;12.70;99.90;;;;;;5027840;28;20030;-43
2022/10/12 07:41:23;;;;;;;9.55;6.43;;;12.90;98.90;;;;;;5043499;28;20044;-44
2022/10/12 07:43:55;;;;;;;8.43;4.65;;;13.20;99.80;;;;;;5045901;28;20051;-48
2022/10/12 07:46:20;;;;;;;7.28;4.57;;;13.40;98.60;;;;;;5019100;28;20320;-43
2022/10/12 07:48:46;;;;;;;6.15;3.72;;;13.70;95.80;;;;;;5047230;28;20017;-44
2022/10/12 07:51:11;;;;;;;7.15;3.08;;;13.90;94.70;;;;;;5031083;28;20448;-46
2022/10/12 07:53:37;;;;;;;6.63;3.15;;;14.10;95.30;;;;;;5046958;28;20072;-48
2022/10/12 07:56:05;;;;;;;5.43;2.78;;;14.30;95.60;;;;;;5029631;28;20029;-46
2022/10/12 07:58:31;;;;;;;5.85;3.20;;;14.50;93.60;;;;;;5046900;28;20028;-47
2022/10/12 08:01:04;;;;;;;3.38;2.50;;;14.70;95.30;;;;;;5028895;28;20035;-46
2022/10/12 08:03:29;;;;;;;5.20;2.60;;;14.80;94.60;;;;;;5046907;28;20057;-48
2022/10/12 08:05:54;;;;;;;4.97;2.58;;;14.90;92.50;;;;;;5028396;28;20531;-46
2022/10/12 08:08:21;;;;;;;5.13;2.53;;;15.00;92.20;;;;;;5046913;28;20555;-46
2022/10/12 08:10:46;;;;;;;5.07;2.60;;;15.20;92.00;;;;;;5027155;28;20041;-48
2022/10/12 08:13:12;;;;;;;5.78;2.75;;;15.30;89.40;;;;;;5047053;28;20374;-46
2022/10/12 08:15:37;;;;;;;6.22;3.13;;;15.30;90.30;;;;;;5025546;28;20025;-47
2022/10/12 08:18:03;;;;;;;7.65;2.92;;;15.50;88.00;;;;;;5046808;28;20033;-46
2022/10/12 08:20:28;;;;;;;4.05;2.50;;;15.60;84.60;;;;;;5027498;28;20033;-49
2022/10/12 08:22:54;;;;;;;5.65;2.55;;;15.70;81.40;;;;;;5023502;28;20040;-45
2022/10/12 08:25:19;;;;;;;3.50;2.15;;;15.80;79.20;;;;;;5046706;28;20047;-50
2022/10/12 08:27:45;;;;;;;8.27;2.83;;;16.00;75.40;;;;;;5025257;28;20037;-49
2022/10/12 08:30:11;;;;;;;6.43;2.35;;;16.10;75.40;;;;;;5044646;28;20107;-50
2022/10/12 08:32:37;;;;;;;5.00;2.00;;;16.00;71.00;;;;;;5025443;28;20034;-48
2022/10/12 08:35:02;;;;;;;7.78;2.22;;;15.90;71.00;;;;;;5046300;28;20114;-46
2022/10/12 08:37:29;;;;;;;3.58;2.30;;;16.00;71.70;;;;;;5025524;28;20119;-46
2022/10/12 08:39:54;;;;;;;7.05;2.28;;;16.00;69.20;;;;;;5045753;28;20037;-46
2022/10/12 08:42:44;;;;;;;4.78;1.90;;;16.10;71.40;;;;;;5025562;28;20037;-46
2022/10/12 08:45:40;;;;;;;5.43;1.73;;;16.30;62.00;;;;;;5007077;28;20030;-46
2022/10/12 08:48:20;;;;;;;3.83;1.73;;;16.30;61.50;;;;;;5044224;28;20112;-48
2022/10/12 08:50:53;;;;;;;4.30;1.80;;;16.40;57.60;;;;;;5005722;28;20061;-46
2022/10/12 08:53:27;;;;;;;5.60;1.60;;;16.70;59.40;;;;;;5049566;28;20036;-46
2022/10/12 08:55:53;;;;;;;5.38;1.42;;;16.80;55.50;;;;;;5029591;28;20032;-46
2022/10/12 08:58:30;;;;;;;3.75;1.38;;;16.90;59.20;;;;;;5050148;28;20037;-46
2022/10/12 09:01:25;;;;;;;7.43;1.88;;;17.10;55.90;;;;;;5010971;28;20038;-48
2022/10/12 09:04:24;;;;;;;4.82;1.88;;;17.20;52.30;;;;;;5050203;28;20041;-47
2022/10/12 09:06:58;;;;;;;5.32;1.85;;;17.20;53.80;;;;;;5025811;28;20416;-46
2022/10/12 09:10:01;;;;;;;5.20;2.65;;;17.30;52.20;;;;;;5010197;28;20038;-46
2022/10/12 09:12:41;;;;;;;7.50;1.95;;;17.40;48.70;;;;;;5022174;28;20033;-46
2022/10/12 09:15:33;;;;;;;5.53;2.17;;;17.50;52.00;;;;;;5010353;28;20026;-47
2022/10/12 09:18:01;;;;;;;3.35;1.95;;;17.50;44.70;;;;;;5025564;28;20040;-46
2022/10/12 09:20:34;;;;;;;7.13;2.40;;;17.10;48.90;;;;;;5049444;28;20432;-46
2022/10/12 09:23:10;;;;;;;5.60;2.17;;;17.10;49.40;;;;;;5024350;28;20047;-46
2022/10/12 09:25:37;;;;;;;5.18;1.75;;;17.10;50.80;;;;;;5049598;28;20483;-46
2022/10/12 09:28:15;;;;;;;4.45;2.17;;;17.20;48.80;;;;;;5027089;28;20112;-46
2022/10/12 09:31:01;;;;;;;5.65;1.80;;;17.30;48.70;;;;;;5009907;28;20692;-46
2022/10/12 09:33:37;;;;;;;7.88;2.30;;;17.40;48.50;;;;;;5009853;28;20556;-46
2022/10/12 09:36:02;;;;;;;4.43;1.88;;;17.30;45.90;;;;;;5010691;28;20034;-46
2022/10/12 09:38:28;;;;;;;5.47;1.80;;;17.30;46.70;;;;;;5049437;28;20079;-46
2022/10/12 09:40:53;;;;;;;5.20;1.80;;;17.20;46.20;;;;;;5028252;28;20030;-47
2022/10/12 09:43:19;;;;;;;6.85;2.08;;;17.30;46.50;;;;;;5009805;28;20256;-46
2022/10/12 09:45:46;;;;;;;10.93;2.55;;;17.30;45.60;;;;;;5048090;28;20048;-46
2022/10/12 09:48:14;;;;;;;5.60;2.00;;;17.40;42.80;;;;;;5027946;28;20068;-45
2022/10/12 09:50:55;;;;;;;7.38;1.65;;;17.30;44.50;;;;;;5048335;28;20033;-46
2022/10/12 09:53:28;;;;;;;4.28;1.95;;;17.30;43.60;;;;;;5009590;28;20067;-46
2022/10/12 09:55:57;;;;;;;3.20;1.30;;;17.10;41.90;;;;;;5049181;28;20039;-46
2022/10/12 09:58:25;;;;;;;4.15;1.63;;;17.00;43.40;;;;;;5048957;28;20055;-46
2022/10/12 10:01:11;;;;;;;4.57;1.55;;;16.90;43.70;;;;;;5029461;28;20026;-47
2022/10/12 10:03:36;;;;;;;5.30;1.58;;;16.70;42.70;;;;;;5028002;28;20133;-46
2022/10/12 10:06:03;;;;;;;4.95;1.50;;;16.40;44.60;;;;;;5046249;28;20120;-59
2022/10/12 10:08:39;;;;;;;5.30;1.90;;;16.40;45.20;;;;;;5048848;28;20429;-59
2022/10/12 10:11:11;;;;;;;5.63;1.35;;;16.50;44.50;;;;;;5007683;28;20071;-59
2022/10/12 10:13:37;;;;;;;6.68;1.73;;;16.30;42.60;;;;;;5048930;28;20036;-59
2022/10/12 10:16:06;;;;;;;4.82;2.03;;;16.20;44.30;;;;;;5026863;28;20029;-59
2022/10/12 10:18:42;;;;;;;6.13;1.52;;;16.10;43.60;;;;;;5048684;28;20029;-59
2022/10/12 10:21:13;;;;;;;4.57;1.40;;;16.10;42.80;;;;;;5009038;28;20033;-59
2022/10/12 10:24:13;;;;;;;6.35;1.90;;;15.90;43.10;;;;;;5030556;28;20493;-57
2022/10/12 10:26:57;;;;;;;2.45;1.13;;;15.70;42.60;;;;;;5005987;28;20037;-58
2022/10/12 10:29:39;;;;;;;5.63;1.80;;;15.70;44.70;;;;;;5048502;28;20543;-58
2022/10/12 10:32:27;;;;;;;9.30;2.20;;;15.70;43.50;;;;;;5023920;28;20049;-59
2022/10/12 10:35:20;;;;;;;5.95;1.40;;;15.80;43.80;;;;;;5008627;28;20525;-59
2022/10/12 10:37:49;;;;;;;8.27;2.22;;;15.80;42.60;;;;;;5016513;28;20561;-57
2022/10/12 10:40:30;;;;;;;7.00;1.63;;;15.70;42.70;;;;;;5047724;28;20021;-57
2022/10/12 10:43:00;;;;;;;2.67;1.17;;;15.70;43.20;;;;;;5026555;28;20120;-58
2022/10/12 10:45:30;;;;;;;3.28;1.30;;;15.80;42.20;;;;;;5008664;28;20038;-59
2022/10/12 10:48:00;;;;;;;9.90;1.80;;;15.70;42.20;;;;;;5031221;28;20041;-59
2022/10/12 10:50:37;;;;;;;4.45;1.60;;;15.70;42.90;;;;;;5048266;28;20025;-58
2022/10/12 10:53:06;;;;;;;7.93;1.67;;;15.70;41.10;;;;;;5022364;28;20068;-58
2022/10/12 10:55:41;;;;;;;5.30;1.38;;;15.70;41.50;;;;;;5047884;28;20033;-57
2022/10/12 10:58:26;;;;;;;7.90;1.77;;;15.70;42.90;;;;;;5026493;28;20056;-55
2022/10/12 11:00:56;;;;;;;6.47;1.65;;;15.70;42.20;;;;;;5008426;28;20090;-55
2022/10/12 11:03:34;;;;;;;7.20;1.73;;;15.70;42.50;;;;;;5024589;28;20673;-58
2022/10/12 11:06:24;;;;;;;4.03;1.40;;;15.60;41.70;;;;;;5008426;28;20462;-57
2022/10/12 11:09:00;;;;;;;4.25;1.15;;;15.50;41.00;;;;;;5008099;28;20736;-59
2022/10/12 11:11:28;;;;;;;5.13;1.30;;;15.60;41.90;;;;;;5023426;28;20061;-59
2022/10/12 11:14:10;;;;;;;4.13;1.30;;;15.60;41.60;;;;;;5048124;28;20407;-58
2022/10/12 11:16:49;;;;;;;7.90;1.60;;;15.60;41.20;;;;;;5012499;28;20029;-57
2022/10/12 11:19:41;;;;;;;10.50;1.42;;;15.60;40.70;;;;;;5047802;28;20024;-57
2022/10/12 11:22:12;;;;;;;9.85;3.50;;;15.50;40.70;;;;;;5020724;28;20037;-58
2022/10/12 11:25:06;;;;;;;3.80;2.28;;;15.40;40.80;;;;;;5024692;28;20029;-57
2022/10/12 11:27:34;;;;;;;10.00;5.93;;;15.40;41.50;;;;;;5027396;28;20025;-58
2022/10/12 11:30:03;;;;;;;6.25;2.95;;;15.40;42.10;;;;;;5026524;28;20546;-57
2022/10/12 11:32:37;;;;;;;5.80;2.35;;;15.40;41.50;;;;;;5035835;28;20029;-58
2022/10/12 11:35:04;;;;;;;5.68;1.70;;;15.40;40.80;;;;;;5007733;28;20037;-58
2022/10/12 11:37:37;;;;;;;5.55;1.88;;;15.40;41.00;;;;;;5043072;28;20488;-58
2022/10/12 11:40:14;;;;;;;5.85;1.33;;;15.40;41.10;;;;;;5006365;28;20662;-58
2022/10/12 11:42:41;;;;;;;2.88;1.30;;;15.40;40.10;;;;;;5027794;28;20033;-58
2022/10/12 11:45:19;;;;;;;7.43;1.83;;;15.40;40.90;;;;;;5026255;28;20056;-58
2022/10/12 11:47:48;;;;;;;6.63;1.73;;;15.50;41.00;;;;;;5028327;28;20033;-57
2022/10/12 11:50:34;;;;;;;5.22;1.45;;;15.60;40.40;;;;;;5026919;28;20057;-59
2022/10/12 11:53:02;;;;;;;3.00;1.10;;;15.70;38.60;;;;;;5019691;28;20057;-59
2022/10/12 11:56:03;;;;;;;3.75;1.10;;;15.80;39.40;;;;;;5046810;28;20017;-59
2022/10/12 11:58:30;;;;;;;4.72;1.50;;;15.80;39.30;;;;;;4999818;28;20094;-59
2022/10/12 12:01:35;;;;;;;2.85;1.20;;;15.90;40.40;;;;;;5027437;28;20033;-58
2022/10/12 12:04:16;;;;;;;6.47;1.25;;;16.00;38.20;;;;;;5015189;28;20029;-59
2022/10/12 12:06:54;;;;;;;6.50;2.30;;;16.00;38.70;;;;;;5045247;28;20615;-58
2022/10/12 12:09:39;;;;;;;4.10;1.60;;;16.20;38.70;;;;;;5046950;28;20115;-59
2022/10/12 12:12:19;;;;;;;6.93;1.65;;;16.30;37.50;;;;;;5016709;28;20068;-59
2022/10/12 12:14:52;;;;;;;7.68;1.98;;;16.40;37.20;;;;;;5047223;28;20037;-59
2022/10/12 12:17:17;;;;;;;4.90;1.40;;;16.50;37.60;;;;;;5020038;28;20060;-59
2022/10/12 12:19:50;;;;;;;6.90;1.70;;;16.60;35.90;;;;;;5047048;28;20071;-58
2022/10/12 12:22:28;;;;;;;3.60;1.17;;;16.60;33.50;;;;;;5031677;28;20029;-58
2022/10/12 12:24:58;;;;;;;4.82;1.25;;;16.60;33.10;;;;;;5004114;28;20033;-58
2022/10/12 12:27:40;;;;;;;4.47;1.50;;;16.50;33.70;;;;;;5022559;28;20060;-59
2022/10/12 12:30:18;;;;;;;5.07;1.40;;;16.50;32.50;;;;;;5030706;28;20029;-58
2022/10/12 12:32:53;;;;;;;6.85;1.90;;;16.50;32.70;;;;;;5048199;28;20498;-59
2022/10/12 12:35:27;;;;;;;5.00;1.60;;;16.50;32.80;;;;;;5030877;28;20025;-58
2022/10/12 12:38:12;;;;;;;2.50;1.00;;;16.50;32.60;;;;;;5032421;28;20718;-58
2022/10/12 12:40:40;;;;;;;6.97;1.35;;;16.50;33.20;;;;;;5011008;28;20083;-59
2022/10/12 12:43:38;;;;;;;5.10;1.88;;;16.40;31.60;;;;;;5035094;28;20117;-58
2022/10/12 12:46:07;;;;;;;8.60;1.30;;;16.30;31.40;;;;;;5004597;28;20075;-58
2022/10/12 12:48:41;;;;;;;6.85;1.48;;;16.40;33.10;;;;;;5028914;28;20030;-58
2022/10/12 12:51:20;;;;;;;3.95;1.42;;;16.60;34.30;;;;;;5050246;28;20029;-58
2022/10/12 12:53:59;;;;;;;3.20;1.50;;;16.70;33.60;;;;;;5027341;28;20204;-58
2022/10/12 12:57:02;;;;;;;1.83;0.93;;;16.90;31.80;;;;;;5050249;28;20103;-58
2022/10/12 12:59:46;;;;;;;5.38;2.03;;;16.90;30.70;;;;;;5050034;28;20040;-58
2022/10/12 13:02:45;;;;;;;10.75;2.15;;;17.00;32.30;;;;;;5020303;28;20049;-58
2022/10/12 13:05:35;;;;;;;3.53;1.65;;;16.90;32.10;;;;;;5049621;28;20480;-57
2022/10/12 13:08:06;;;;;;;7.30;1.75;;;16.80;33.30;;;;;;5032262;28;20104;-56